Time;durP1;ratioP1;P1;durP2;ratioP2;P2;SDS_P1;SDS_P2;PMS_P1;PMS_P2;Temp;Humidity;BMP_temperature;BMP_pressure;BME280_temperature;BME280_humidity;BME280_pressure;Samples;Min_cycle;Max_cycle;Signal;HPM_P1;HPM_P2
2022/09/22 00:01:18;;;;;;;2.83;2.10;;;;;;;3.06;100.00;97096.53;6128132;23;20825;-76
2022/09/22 00:03:48;;;;;;;11.73;2.60;;;;;;;2.82;100.00;97054.47;6128229;23;20400;-76
2022/09/22 00:06:18;;;;;;;3.60;3.30;;;;;;;3.08;100.00;97094.47;6128033;23;20418;-76
2022/09/22 00:08:50;;;;;;;4.70;3.20;;;;;;;3.16;100.00;97099.97;6128198;23;20403;-76
2022/09/22 00:11:27;;;;;;;4.13;3.40;;;;;;;2.94;100.00;97092.38;6154302;23;20384;-76
2022/09/22 00:14:00;;;;;;;4.30;2.77;;;;;;;2.56;100.00;97087.53;6154408;23;20846;-76
2022/09/22 00:16:32;;;;;;;3.10;2.80;;;;;;;2.55;100.00;97057.25;6127499;23;21237;-76
2022/09/22 00:18:59;;;;;;;3.80;2.33;;;;;;;2.80;100.00;97104.31;6128238;23;20462;-76
2022/09/22 00:21:26;;;;;;;5.87;4.13;;;;;;;2.70;100.00;97100.91;6128484;23;20483;-76
2022/09/22 00:23:53;;;;;;;4.43;4.00;;;;;;;2.50;100.00;97104.22;6134380;23;20388;-75
2022/09/22 00:26:22;;;;;;;3.93;3.63;;;;;;;2.62;100.00;97107.38;6179376;23;20404;-78
2022/09/22 00:28:50;;;;;;;3.87;3.33;;;;;;;2.31;100.00;97043.88;6129494;23;20412;-76
2022/09/22 00:31:23;;;;;;;9.63;3.30;;;;;;;2.32;100.00;97032.38;6179565;23;20372;-76
2022/09/22 00:33:51;;;;;;;4.23;3.50;;;;;;;2.72;100.00;97101.44;6153217;23;20463;-75
2022/09/22 00:36:20;;;;;;;3.67;3.30;;;;;;;2.72;100.00;97094.38;6153392;23;20434;-76
2022/09/22 00:38:50;;;;;;;3.97;3.57;;;;;;;2.74;100.00;97071.41;6106804;23;20420;-76
2022/09/22 00:41:20;;;;;;;5.73;3.77;;;;;;;2.66;100.00;97077.91;6153949;23;20390;-76
2022/09/22 00:43:50;;;;;;;3.20;2.73;;;;;;;2.65;100.00;97080.78;6127715;23;20400;-76
2022/09/22 00:46:22;;;;;;;4.97;3.30;;;;;;;2.76;100.00;97090.22;6127914;23;20475;-76
2022/09/22 00:49:02;;;;;;;6.10;3.20;;;;;;;2.74;100.00;97084.47;6128063;23;20373;-76
2022/09/22 00:51:33;;;;;;;4.10;3.70;;;;;;;2.42;100.00;97050.69;6127700;23;20862;-76
2022/09/22 00:54:04;;;;;;;5.03;2.63;;;;;;;2.32;100.00;97042.81;6127933;23;20791;-76
2022/09/22 00:56:49;;;;;;;4.63;2.90;;;;;;;2.43;100.00;97059.31;6127592;23;20423;-76
2022/09/22 00:59:20;;;;;;;3.30;2.77;;;;;;;2.25;100.00;97068.34;6127519;23;20424;-76
2022/09/22 01:01:47;;;;;;;5.40;2.80;;;;;;;2.35;100.00;97084.84;6127912;23;20368;-76
2022/09/22 01:04:15;;;;;;;3.60;2.90;;;;;;;1.84;100.00;97039.44;6153794;23;20388;-76
2022/09/22 01:06:43;;;;;;;4.30;2.47;;;;;;;2.27;100.00;97074.91;6103374;23;20475;-76
2022/09/22 01:09:10;;;;;;;2.87;2.67;;;;;;;2.33;100.00;97076.47;6127436;23;20395;-76
2022/09/22 01:11:38;;;;;;;4.33;3.07;;;;;;;2.33;100.00;97089.53;6127519;23;20435;-76
2022/09/22 01:14:36;;;;;;;3.23;3.03;;;;;;;2.28;100.00;97075.69;6127513;23;20404;-76
2022/09/22 01:17:02;;;;;;;4.20;2.80;;;;;;;2.36;100.00;97075.19;6127439;23;20423;-76
2022/09/22 01:19:54;;;;;;;3.27;3.07;;;;;;;2.28;100.00;97075.69;6127461;23;20857;-76
2022/09/22 01:22:45;;;;;;;2.70;2.40;;;;;;;2.17;100.00;97068.84;6128988;23;20396;-76
2022/09/22 01:25:15;;;;;;;3.97;3.00;;;;;;;2.13;100.00;97073.75;6127519;23;20494;-77
2022/09/22 01:28:19;;;;;;;3.30;2.87;;;;;;;2.05;100.00;97058.59;6127779;23;20408;-76
2022/09/22 01:31:02;;;;;;;4.10;3.10;;;;;;;2.25;100.00;97070.94;6127501;23;20392;-76
2022/09/22 01:33:51;;;;;;;4.03;3.67;;;;;;;2.19;100.00;97071.97;6153942;23;20368;-77
2022/09/22 01:36:50;;;;;;;3.80;3.23;;;;;;;2.22;100.00;97077.47;6127548;23;20438;-77
2022/09/22 01:39:28;;;;;;;6.30;4.13;;;;;;;2.05;100.00;97020.28;6055892;23;20431;-77
2022/09/22 01:42:10;;;;;;;11.80;3.50;;;;;;;2.39;100.00;97064.22;6127335;23;20734;-76
2022/09/22 01:44:51;;;;;;;8.07;4.10;;;;;;;2.21;100.00;97028.16;6127613;23;20471;-77
2022/09/22 01:47:35;;;;;;;6.23;5.37;;;;;;;2.19;100.00;97067.53;6127135;23;20431;-76
2022/09/22 01:50:23;;;;;;;7.53;5.27;;;;;;;1.69;100.00;97040.16;6127764;23;20391;-77
2022/09/22 01:52:52;;;;;;;6.97;5.10;;;;;;;1.63;100.00;97030.75;6127377;23;20499;-77
2022/09/22 01:55:31;;;;;;;9.90;6.27;;;;;;;1.84;100.00;97047.28;6127371;23;20411;-77
2022/09/22 01:58:03;;;;;;;9.30;5.17;;;;;;;1.92;100.00;97017.34;6127365;23;20762;-77
2022/09/22 02:00:31;;;;;;;8.53;5.80;;;;;;;2.31;100.00;97070.75;6127595;23;20434;-77
2022/09/22 02:03:16;;;;;;;7.27;3.70;;;;;;;2.26;100.00;97055.03;6127280;23;20400;-77
2022/09/22 02:06:01;;;;;;;4.27;3.87;;;;;;;2.00;100.00;97061.19;6127282;23;20482;-79
2022/09/22 02:08:43;;;;;;;6.17;4.53;;;;;;;1.54;100.00;97021.03;6127400;23;20388;-77
2022/09/22 02:11:17;;;;;;;6.90;3.83;;;;;;;1.62;100.00;97007.53;6127385;23;20391;-77
2022/09/22 02:13:45;;;;;;;4.83;3.20;;;;;;;1.77;100.00;97028.47;6153935;23;20372;-77
2022/09/22 02:16:14;;;;;;;6.80;4.43;;;;;;;1.94;100.00;97057.75;6127758;23;20524;-79
2022/09/22 02:18:52;;;;;;;12.90;4.17;;;;;;;1.70;100.00;97020.09;6103110;23;20408;-77
2022/09/22 02:21:20;;;;;;;6.13;4.10;;;;;;;1.56;100.00;97000.72;6153469;23;20431;-75
2022/09/22 02:23:48;;;;;;;6.47;3.90;;;;;;;1.68;100.00;97011.72;6179140;23;20396;-76
2022/09/22 02:26:22;;;;;;;10.50;3.90;;;;;;;1.87;100.00;97048.59;6153186;23;20388;-76
2022/09/22 02:28:52;;;;;;;6.73;4.80;;;;;;;1.61;100.00;97008.56;6152194;23;20467;-75
2022/09/22 02:31:22;;;;;;;6.83;3.57;;;;;;;1.86;100.00;97044.41;6152961;23;20423;-76
2022/09/22 02:33:50;;;;;;;3.77;3.27;;;;;;;1.44;100.00;96996.47;6150759;23;20395;-76
2022/09/22 02:36:23;;;;;;;9.50;4.33;;;;;;;1.74;100.00;97044.63;6127525;23;20522;-77
2022/09/22 02:38:58;;;;;;;9.03;3.87;;;;;;;1.51;100.00;97022.31;6103121;23;20428;-77
2022/09/22 02:41:39;;;;;;;4.20;3.67;;;;;;;1.72;100.00;97036.25;6129155;23;20850;-77
2022/09/22 02:44:17;;;;;;;3.40;3.10;;;;;;;1.69;100.00;97040.16;6129654;23;20372;-77
2022/09/22 02:47:06;;;;;;;4.97;3.57;;;;;;;1.58;100.00;97004.63;6129043;23;20435;-77
2022/09/22 02:49:34;;;;;;;6.23;3.97;;;;;;;1.48;100.00;97015.78;6155417;23;20894;-77
2022/09/22 02:52:00;;;;;;;3.27;2.87;;;;;;;1.18;100.00;96969.47;6155102;23;20419;-76
2022/09/22 02:54:27;;;;;;;14.40;3.77;;;;;;;1.71;100.00;97038.06;6155456;23;20388;-77
2022/09/22 02:56:54;;;;;;;3.33;3.03;;;;;;;1.64;100.00;97036.75;6105015;23;20415;-77
2022/09/22 02:59:20;;;;;;;3.50;3.10;;;;;;;1.26;100.00;96998.69;6129507;23;20495;-77
2022/09/22 03:01:47;;;;;;;3.27;2.97;;;;;;;1.71;100.00;97039.91;6105295;23;20733;-77
2022/09/22 03:04:14;;;;;;;3.20;3.00;;;;;;;1.58;100.00;97038.50;6129640;23;20741;-77
2022/09/22 03:06:40;;;;;;;3.80;3.50;;;;;;;1.47;100.00;97023.88;6129842;23;20426;-77
2022/09/22 03:09:07;;;;;;;6.97;2.43;;;;;;;1.73;100.00;97046.41;6105685;23;20427;-77
2022/09/22 03:11:33;;;;;;;3.77;3.47;;;;;;;1.51;100.00;97006.69;6105355;23;20408;-77
2022/09/22 03:14:00;;;;;;;3.60;3.30;;;;;;;1.51;100.00;97006.69;6105430;23;20499;-76
2022/09/22 03:16:27;;;;;;;4.00;3.00;;;;;;;0.67;100.00;96980.50;6128906;23;20423;-77
2022/09/22 03:18:54;;;;;;;3.37;3.10;;;;;;;0.62;100.00;96988.25;6129157;23;20392;-77
2022/09/22 03:21:21;;;;;;;4.80;3.13;;;;;;;0.58;100.00;96995.78;6128769;23;20399;-77
2022/09/22 03:23:48;;;;;;;3.47;3.27;;;;;;;0.98;100.00;97010.97;6129467;23;20388;-77
2022/09/22 03:26:14;;;;;;;3.77;3.20;;;;;;;1.05;100.00;97010.75;6129406;23;20424;-77
2022/09/22 03:28:42;;;;;;;5.30;3.10;;;;;;;1.04;100.00;97009.97;6155142;23;20474;-77
2022/09/22 03:31:10;;;;;;;3.33;3.03;;;;;;;0.73;100.00;96949.06;6155484;23;20396;-77
2022/09/22 03:33:37;;;;;;;5.40;3.83;;;;;;;1.15;100.00;97029.84;6104980;23;20791;-77
2022/09/22 03:36:04;;;;;;;5.13;4.63;;;;;;;1.14;100.00;97007.47;6155116;23;20478;-76
2022/09/22 03:38:32;;;;;;;3.13;2.90;;;;;;;1.33;100.00;97030.50;6129173;23;20908;-77
2022/09/22 03:41:00;;;;;;;9.00;3.40;;;;;;;1.29;100.00;97001.56;6104365;23;20515;-77
2022/09/22 03:43:26;;;;;;;9.70;3.60;;;;;;;1.32;100.00;97023.72;6128667;23;20487;-77
2022/09/22 03:45:57;;;;;;;4.13;2.93;;;;;;;1.11;100.00;97001.97;6128538;23;20886;-76
2022/09/22 03:48:26;;;;;;;3.63;3.30;;;;;;;1.02;100.00;96987.84;6128344;23;20752;-77
2022/09/22 03:50:52;;;;;;;5.30;3.20;;;;;;;1.25;100.00;97023.16;6128143;23;20396;-76
2022/09/22 03:53:19;;;;;;;4.57;4.17;;;;;;;0.81;100.00;96927.81;6128311;23;20572;-76
2022/09/22 03:55:46;;;;;;;5.27;3.03;;;;;;;1.37;100.00;97024.56;6104035;23;20418;-76
2022/09/22 03:58:13;;;;;;;5.20;3.10;;;;;;;0.84;100.00;96989.00;6127927;23;20507;-76
2022/09/22 04:00:40;;;;;;;5.73;3.30;;;;;;;1.01;100.00;97020.09;6127966;23;20491;-76
2022/09/22 04:03:07;;;;;;;6.87;4.40;;;;;;;0.97;100.00;96998.22;6128386;23;20399;-76
2022/09/22 04:05:34;;;;;;;6.77;4.00;;;;;;;1.21;100.00;97009.09;6128454;23;20392;-76
2022/09/22 04:08:00;;;;;;;4.50;3.50;;;;;;;1.24;100.00;97026.81;6128300;23;20830;-76
2022/09/22 04:10:27;;;;;;;3.80;3.50;;;;;;;1.05;100.00;96995.13;6129132;23;20724;-76
2022/09/22 04:12:54;;;;;;;7.53;3.70;;;;;;;0.85;100.00;96974.94;6129977;23;20419;-76
2022/09/22 04:15:20;;;;;;;5.43;3.83;;;;;;;1.30;100.00;97016.16;6103932;23;20407;-77
2022/09/22 04:17:47;;;;;;;4.23;3.43;;;;;;;1.36;100.00;97022.22;6128092;23;20436;-76
2022/09/22 04:20:15;;;;;;;7.77;4.03;;;;;;;1.15;100.00;96988.19;6154181;23;20914;-76
2022/09/22 04:22:42;;;;;;;5.10;4.00;;;;;;;1.15;100.00;96988.19;6128141;23;20408;-76
2022/09/22 04:25:08;;;;;;;6.13;3.83;;;;;;;1.20;100.00;96995.25;6127832;23;21220;-76
2022/09/22 04:27:35;;;;;;;8.00;3.53;;;;;;;1.43;100.00;97018.34;6103893;23;20430;-76
2022/09/22 04:30:04;;;;;;;12.30;5.73;;;;;;;1.10;100.00;96967.34;6160325;23;20364;-76
2022/09/22 04:32:31;;;;;;;6.07;4.40;;;;;;;1.07;100.00;96985.25;6153842;23;20420;-76
2022/09/22 04:34:58;;;;;;;7.63;5.47;;;;;;;1.33;100.00;97002.63;6153657;23;20380;-76
2022/09/22 04:37:25;;;;;;;9.83;5.07;;;;;;;1.16;100.00;96978.56;6153797;23;20523;-76
2022/09/22 04:39:53;;;;;;;5.20;4.70;;;;;;;1.05;100.00;96990.72;6129723;23;20439;-75
2022/09/22 04:42:20;;;;;;;7.60;4.90;;;;;;;1.01;100.00;97014.91;6146273;23;20435;-77
2022/09/22 04:44:47;;;;;;;7.23;4.53;;;;;;;0.95;100.00;96990.66;6128151;23;20471;-77
2022/09/22 04:47:13;;;;;;;9.47;4.43;;;;;;;0.97;100.00;96972.97;6103417;23;20510;-76
2022/09/22 04:49:40;;;;;;;5.73;5.23;;;;;;;1.30;100.00;96999.75;6103450;23;20896;-77
2022/09/22 04:52:07;;;;;;;8.77;5.00;;;;;;;1.09;100.00;96983.22;6153944;23;20471;-76
2022/09/22 04:54:33;;;;;;;7.93;4.27;;;;;;;0.80;100.00;96962.69;6127889;23;20495;-76
2022/09/22 04:57:00;;;;;;;6.67;4.83;;;;;;;0.97;100.00;96996.41;6127815;23;20408;-76
2022/09/22 04:59:28;;;;;;;5.97;4.53;;;;;;;0.74;100.00;97005.28;6153701;23;20431;-76
2022/09/22 05:01:55;;;;;;;7.23;4.20;;;;;;;0.49;100.00;96956.41;6103313;23;20431;-76
2022/09/22 05:04:22;;;;;;;7.67;4.30;;;;;;;0.88;100.00;97016.88;6129714;23;20483;-77
2022/09/22 05:06:48;;;;;;;10.20;4.93;;;;;;;0.58;100.00;96980.94;6127599;23;20435;-77
2022/09/22 05:09:15;;;;;;;10.20;4.87;;;;;;;0.54;100.00;96974.69;6127589;23;20498;-77
2022/09/22 05:11:43;;;;;;;9.70;5.20;;;;;;;0.95;100.00;97021.09;6127683;23;20470;-77
2022/09/22 05:14:09;;;;;;;25.23;6.40;;;;;;;0.73;100.00;96992.53;6127673;23;20403;-77
2022/09/22 05:16:36;;;;;;;15.73;6.47;;;;;;;0.82;100.00;96986.63;6127642;23;20420;-77
2022/09/22 05:19:03;;;;;;;8.97;6.07;;;;;;;0.81;100.00;96956.44;6127675;23;20885;-77
2022/09/22 05:21:29;;;;;;;8.90;6.50;;;;;;;1.45;100.00;97012.88;6127340;23;20512;-77
2022/09/22 05:23:56;;;;;;;22.63;9.17;;;;;;;1.03;100.00;96987.56;6127342;23;20711;-77
2022/09/22 05:26:23;;;;;;;18.27;9.47;;;;;;;1.33;100.00;97010.44;6153721;23;20981;-77
2022/09/22 05:28:50;;;;;;;18.63;9.83;;;;;;;1.29;100.00;97011.22;6127334;23;20451;-77
2022/09/22 05:31:17;;;;;;;16.83;10.83;;;;;;;1.09;100.00;96996.22;6103409;23;20392;-77
2022/09/22 05:33:43;;;;;;;18.80;14.00;;;;;;;1.63;100.00;96952.56;6153547;23;20757;-77
2022/09/22 05:36:10;;;;;;;20.47;11.63;;;;;;;1.77;100.00;97024.03;6127070;23;20731;-77
2022/09/22 05:38:37;;;;;;;16.00;11.53;;;;;;;1.61;100.00;97009.38;6127317;23;20403;-77
2022/09/22 05:41:03;;;;;;;22.77;11.10;;;;;;;1.58;100.00;97024.69;6127492;23;20531;-77
2022/09/22 05:43:30;;;;;;;12.93;9.40;;;;;;;1.43;100.00;97000.13;6127476;23;20394;-77
2022/09/22 05:45:57;;;;;;;12.73;9.30;;;;;;;1.43;100.00;96996.72;6153349;23;20388;-77
2022/09/22 05:48:23;;;;;;;11.10;8.37;;;;;;;1.24;100.00;96979.94;6127280;23;20403;-77
2022/09/22 05:50:56;;;;;;;15.20;8.77;;;;;;;1.51;100.00;97013.72;6127524;23;20384;-76
2022/09/22 05:53:23;;;;;;;9.97;8.13;;;;;;;1.36;100.00;97003.97;6133044;23;20486;-78
2022/09/22 05:55:49;;;;;;;9.93;7.70;;;;;;;1.27;100.00;96982.03;6161227;23;20408;-78
2022/09/22 05:58:16;;;;;;;12.40;7.37;;;;;;;1.26;100.00;96957.03;6161836;23;20428;-78
2022/09/22 06:00:43;;;;;;;10.50;7.37;;;;;;;1.72;100.00;97037.03;6111291;23;20432;-79
2022/09/22 06:03:09;;;;;;;10.33;8.10;;;;;;;1.87;100.00;97035.56;6111245;23;20411;-78
2022/09/22 06:05:36;;;;;;;10.37;7.20;;;;;;;2.01;100.00;97028.88;6134871;23;20414;-78
2022/09/22 06:08:05;;;;;;;9.50;7.00;;;;;;;1.87;100.00;97025.13;6160257;23;20890;-77
2022/09/22 06:10:34;;;;;;;20.77;8.87;;;;;;;1.82;100.00;97038.94;6125838;23;20410;-77
2022/09/22 06:13:02;;;;;;;7.57;6.17;;;;;;;1.94;100.00;97039.50;6149647;23;20402;-77
2022/09/22 06:15:32;;;;;;;14.10;7.23;;;;;;;1.88;100.00;97029.31;6177752;23;20364;-76
2022/09/22 06:18:00;;;;;;;21.10;7.27;;;;;;;1.76;100.00;97038.13;6124282;23;20463;-77
2022/09/22 06:20:27;;;;;;;13.60;8.07;;;;;;;1.69;100.00;97032.31;6131680;23;20531;-77
2022/09/22 06:22:55;;;;;;;16.77;6.90;;;;;;;1.88;100.00;97042.38;6131410;23;20827;-78
2022/09/22 06:25:22;;;;;;;9.90;6.87;;;;;;;1.77;100.00;97015.44;6157025;23;20475;-78
2022/09/22 06:28:06;;;;;;;15.20;6.57;;;;;;;1.93;100.00;97034.56;6156593;23;20506;-77
2022/09/22 06:30:34;;;;;;;6.23;5.60;;;;;;;1.93;100.00;97035.34;6130259;23;20431;-77
2022/09/22 06:33:01;;;;;;;17.43;7.83;;;;;;;2.20;100.00;97043.03;6156285;23;20479;-77
2022/09/22 06:35:36;;;;;;;15.53;7.07;;;;;;;2.26;100.00;97026.34;6129858;23;20394;-77
2022/09/22 06:38:05;;;;;;;32.83;8.97;;;;;;;2.28;100.00;97007.84;6129471;23;20427;-78
2022/09/22 06:40:35;;;;;;;20.07;7.73;;;;;;;2.16;100.00;97000.25;6155700;23;20470;-77
2022/09/22 06:43:06;;;;;;;15.67;9.43;;;;;;;2.43;100.00;97033.22;6130291;23;20380;-78
2022/09/22 06:45:33;;;;;;;33.47;11.53;;;;;;;2.43;100.00;97046.25;6130831;23;20422;-78
2022/09/22 06:48:00;;;;;;;31.30;8.60;;;;;;;2.26;100.00;97015.91;6156279;23;20411;-78
2022/09/22 06:50:32;;;;;;;22.77;9.00;;;;;;;2.41;100.00;97022.25;6106064;23;20397;-78
2022/09/22 06:53:00;;;;;;;18.07;8.30;;;;;;;2.63;100.00;97044.47;6106084;23;20410;-78
2022/09/22 06:55:28;;;;;;;14.83;7.30;;;;;;;2.83;100.00;97045.59;6130151;23;20490;-78
2022/09/22 06:57:59;;;;;;;15.47;7.60;;;;;;;2.91;100.00;97039.84;6156724;23;20495;-78
2022/09/22 07:00:30;;;;;;;19.50;8.40;;;;;;;2.69;100.00;97011.34;6130326;23;20518;-78
2022/09/22 07:03:07;;;;;;;8.83;6.40;;;;;;;2.59;100.00;96999.06;6131420;23;20378;-78
2022/09/22 07:05:36;;;;;;;11.80;6.63;;;;;;;2.96;100.00;97039.88;6130665;23;20442;-78
2022/09/22 07:08:03;;;;;;;19.40;7.90;;;;;;;3.00;100.00;97043.50;6130272;23;20760;-78
2022/09/22 07:10:36;;;;;;;16.43;9.27;;;;;;;2.84;100.00;97016.59;6106362;23;20503;-78
2022/09/22 07:13:05;;;;;;;11.97;8.30;;;;;;;3.07;100.00;97036.22;6107635;23;20403;-78
2022/09/22 07:15:34;;;;;;;10.83;7.83;;;;;;;3.11;100.00;97020.81;6130679;23;20486;-78
2022/09/22 07:18:03;;;;;;;11.10;8.50;;;;;;;3.52;100.00;97043.28;6155326;23;20435;-78
2022/09/22 07:20:32;;;;;;;9.90;7.53;;;;;;;3.32;100.00;97013.72;6157122;23;20426;-78
2022/09/22 07:23:00;;;;;;;15.73;7.63;;;;;;;3.36;100.00;97012.19;6130627;23;21118;-78
2022/09/22 07:25:28;;;;;;;14.00;7.67;;;;;;;3.76;100.00;97053.19;6156842;23;20383;-78
2022/09/22 07:27:56;;;;;;;8.43;7.57;;;;;;;3.88;100.00;97031.97;6132093;23;20755;-78
2022/09/22 07:30:25;;;;;;;9.43;7.97;;;;;;;4.19;100.00;97043.91;6132515;23;20901;-78
2022/09/22 07:32:51;;;;;;;9.77;8.07;;;;;;;4.49;100.00;97042.22;6108178;23;20412;-78
2022/09/22 07:35:18;;;;;;;8.20;7.40;;;;;;;4.52;100.00;97041.69;6159133;23;20420;-78
2022/09/22 07:37:45;;;;;;;8.30;7.60;;;;;;;4.68;100.00;97025.66;6159240;23;20514;-78
2022/09/22 07:40:13;;;;;;;11.33;7.10;;;;;;;4.91;100.00;97039.91;6132701;23;20447;-77
2022/09/22 07:42:40;;;;;;;8.73;7.53;;;;;;;4.80;100.00;97001.72;6133396;23;20411;-78
2022/09/22 07:45:11;;;;;;;10.40;7.00;;;;;;;4.75;100.00;97010.41;6160253;23;20388;-78
2022/09/22 07:50:23;;;;;;;12.20;6.00;;;;;;;6.47;100.00;97056.38;6152856;23;20428;-78
2022/09/22 07:52:53;;;;;;;8.70;5.40;;;;;;;6.61;100.00;97057.25;6152283;23;20423;-77
2022/09/22 07:55:23;;;;;;;12.33;6.50;;;;;;;6.81;100.00;97061.44;6127435;23;20415;-77
2022/09/22 07:57:59;;;;;;;8.30;5.83;;;;;;;6.89;100.00;97052.16;6150893;23;20450;-77
2022/09/22 08:00:31;;;;;;;10.33;4.90;;;;;;;7.11;100.00;97057.63;6144163;23;20482;-77
2022/09/22 08:03:00;;;;;;;6.93;5.70;;;;;;;7.07;100.00;97060.00;6131181;23;20468;-78
2022/09/22 08:05:27;;;;;;;5.47;4.97;;;;;;;6.92;100.00;97020.81;6130604;23;20867;-78
2022/09/22 08:07:57;;;;;;;5.20;4.80;;;;;;;7.37;100.00;97053.53;6106332;23;20538;-76
2022/09/22 08:10:25;;;;;;;4.87;4.47;;;;;;;7.55;100.00;97051.16;6106253;23;21104;-78
2022/09/22 08:12:53;;;;;;;7.63;6.03;;;;;;;7.25;100.00;97002.44;6130271;23;20490;-78
2022/09/22 08:15:21;;;;;;;6.13;5.53;;;;;;;7.45;100.00;97059.97;6130744;23;20732;-78
2022/09/22 08:17:56;;;;;;;5.83;5.33;;;;;;;7.83;100.00;97046.72;6132088;23;20470;-77
2022/09/22 08:20:27;;;;;;;4.70;4.40;;;;;;;7.70;100.00;97012.19;6131926;23;20443;-78
2022/09/22 08:23:01;;;;;;;5.20;4.80;;;;;;;8.18;100.00;97056.63;6132406;23;20380;-78
2022/09/22 08:25:29;;;;;;;5.47;5.00;;;;;;;8.51;100.00;97051.28;6132786;23;20415;-79
2022/09/22 08:27:56;;;;;;;6.53;5.87;;;;;;;8.52;100.00;97060.75;6131839;23;20435;-78
2022/09/22 08:30:22;;;;;;;7.90;5.60;;;;;;;8.36;100.00;97009.41;6160774;23;20456;-78
2022/09/22 08:32:49;;;;;;;6.20;5.47;;;;;;;8.80;100.00;97051.72;6132242;23;20432;-78
2022/09/22 08:35:16;;;;;;;7.67;7.13;;;;;;;8.79;100.00;97052.78;6158528;23;20388;-78
2022/09/22 08:37:44;;;;;;;7.00;6.40;;;;;;;8.16;100.00;97026.41;6131775;23;20466;-78
2022/09/22 08:40:24;;;;;;;6.60;5.90;;;;;;;8.55;100.00;97049.63;6157748;23;20408;-78
2022/09/22 08:42:53;;;;;;;9.40;6.67;;;;;;;8.05;100.00;97051.34;6158512;23;21073;-78
2022/09/22 08:45:28;;;;;;;8.17;5.57;;;;;;;8.45;100.00;97060.38;6131981;23;20395;-78
2022/09/22 08:54:08;;;;;;;5.57;5.13;;;;;;;8.42;100.00;97039.88;6095983;23;20381;-78
2022/09/22 08:56:59;;;;;;;6.43;4.97;;;;;;;8.71;100.00;97048.22;6110634;23;20419;-78
2022/09/22 08:59:37;;;;;;;6.73;6.03;;;;;;;8.74;100.00;97010.72;6133181;23;20431;-78
2022/09/22 09:02:35;;;;;;;6.40;5.30;;;;;;;9.15;100.00;97050.16;6132562;23;20818;-78
2022/09/22 09:05:19;;;;;;;6.90;6.23;;;;;;;9.35;100.00;97042.88;6158359;23;20384;-78
2022/09/22 09:07:59;;;;;;;7.23;5.80;;;;;;;9.65;100.00;97052.69;6161221;23;20400;-78
2022/09/22 09:10:41;;;;;;;8.73;5.70;;;;;;;9.60;100.00;97046.72;6139100;23;20778;-80
2022/09/22 09:13:10;;;;;;;5.30;4.83;;;;;;;9.82;100.00;97052.00;6130270;23;20455;-77
2022/09/22 09:16:02;;;;;;;5.97;5.23;;;;;;;9.78;100.00;97046.56;6130083;23;20415;-78
2022/09/22 09:18:32;;;;;;;8.47;5.50;;;;;;;10.13;100.00;97030.06;6130422;23;20736;-77
2022/09/22 09:21:03;;;;;;;5.10;4.60;;;;;;;9.84;100.00;97012.84;6130279;23;20435;-77
2022/09/22 09:23:53;;;;;;;4.33;4.03;;;;;;;10.08;100.00;97037.06;6129972;23;20392;-77
2022/09/22 09:26:40;;;;;;;7.23;4.20;;;;;;;10.07;100.00;97003.00;6156538;23;20411;-77
2022/09/22 09:29:16;;;;;;;5.10;4.60;;;;;;;10.59;100.00;97030.41;6158126;23;20894;-78
2022/09/22 09:31:52;;;;;;;12.37;4.10;;;;;;;10.43;100.00;96994.91;6125713;23;20415;-78
2022/09/22 09:34:22;;;;;;;3.73;3.33;;;;;;;10.62;100.00;96978.75;6149901;23;20400;-77
2022/09/22 09:36:54;;;;;;;9.83;4.47;;;;;;;11.07;100.00;97036.66;6149192;23;20434;-77
2022/09/22 09:39:31;;;;;;;4.70;4.30;;;;;;;11.07;100.00;97044.59;6149853;23;20381;-78
2022/09/22 09:42:01;;;;;;;5.30;4.30;;;;;;;11.12;100.00;97021.41;6110750;23;20522;-78
2022/09/22 09:44:39;;;;;;;6.03;4.20;;;;;;;10.72;100.00;96989.03;6129854;23;20435;-78
2022/09/22 09:47:33;;;;;;;5.10;3.80;;;;;;;11.21;100.00;97030.09;6106142;23;20920;-78
2022/09/22 09:50:00;;;;;;;4.03;3.40;;;;;;;10.98;100.00;96967.09;6106177;23;20395;-78
2022/09/22 09:52:27;;;;;;;4.87;2.87;;;;;;;11.20;100.00;96948.38;6130388;23;20411;-78
2022/09/22 09:54:54;;;;;;;7.63;3.40;;;;;;;11.81;100.00;96999.34;6129789;23;20460;-77
2022/09/22 09:57:22;;;;;;;5.30;3.47;;;;;;;11.71;100.00;97018.97;6105371;23;20914;-78
2022/09/22 10:00:31;;;;;;;2.80;2.53;;;;;;;12.16;100.00;97021.22;6131845;23;20380;-78
2022/09/22 10:03:25;;;;;;;10.07;9.27;;;;;;;12.46;100.00;97029.16;6156982;23;20395;-78
2022/09/22 10:06:03;;;;;;;3.80;3.33;;;;;;;12.33;100.00;97004.44;6130466;23;20842;-78
2022/09/22 10:08:35;;;;;;;5.40;3.60;;;;;;;12.07;100.00;96978.03;6130181;23;20368;-78
2022/09/22 10:11:03;;;;;;;4.50;4.03;;;;;;;12.12;100.00;97018.41;6130020;23;20491;-78
2022/09/22 10:13:33;;;;;;;3.60;2.80;;;;;;;11.68;100.00;96989.69;6129534;23;20467;-78
2022/09/22 10:16:22;;;;;;;4.13;3.27;;;;;;;11.38;100.00;96984.31;6129673;23;20490;-77
2022/09/22 10:19:11;;;;;;;4.17;3.80;;;;;;;11.55;100.00;97024.00;6129789;23;20499;-76
2022/09/22 10:21:38;;;;;;;4.50;3.77;;;;;;;11.35;100.00;96976.22;6140564;23;21063;-78
2022/09/22 10:24:26;;;;;;;3.67;3.33;;;;;;;11.75;100.00;97016.47;6129684;23;20486;-77
2022/09/22 10:26:54;;;;;;;5.00;3.70;;;;;;;11.62;100.00;96970.56;6129764;23;20814;-78
2022/09/22 10:29:21;;;;;;;4.93;3.93;;;;;;;11.44;100.00;96967.16;6130012;23;20436;-78
2022/09/22 10:32:07;;;;;;;5.87;3.50;;;;;;;11.74;100.00;97013.03;6130102;23;20772;-78
2022/09/22 10:34:50;;;;;;;3.77;3.47;;;;;;;11.87;100.00;97007.91;6133439;23;20447;-78
2022/09/22 10:37:24;;;;;;;4.20;3.90;;;;;;;11.54;100.00;96969.47;6107346;23;20424;-78
2022/09/22 10:39:53;;;;;;;6.23;3.70;;;;;;;12.06;100.00;97010.94;6129999;23;20845;-78
2022/09/22 10:42:42;;;;;;;2.67;2.47;;;;;;;12.33;100.00;97013.16;6129937;23;20538;-78
2022/09/22 10:45:12;;;;;;;3.10;2.90;;;;;;;12.38;100.00;97014.84;6130378;23;20399;-78
2022/09/22 10:48:02;;;;;;;3.23;2.90;;;;;;;12.53;100.00;97016.94;6130121;23;21286;-78
2022/09/22 10:51:13;;;;;;;4.03;2.23;;;;;;;12.19;100.00;97012.59;6130965;23;20431;-78
2022/09/22 10:54:21;;;;;;;2.43;1.77;;;;;;;12.14;100.00;97020.72;6125652;23;20407;-78
2022/09/22 10:56:52;;;;;;;2.63;2.43;;;;;;;12.05;100.00;97006.75;6042459;23;21331;-78
2022/09/22 10:59:50;;;;;;;2.30;2.10;;;;;;;12.10;100.00;97017.16;6091522;23;20442;-77
2022/09/22 11:02:17;;;;;;;2.20;2.00;;;;;;;12.11;100.00;97016.84;6131518;23;20455;-78
2022/09/22 11:04:50;;;;;;;2.63;1.80;;;;;;;11.90;100.00;96994.03;6132159;23;20416;-77
2022/09/22 11:13:39;;;;;;;1.40;1.30;;;;;;;12.25;100.00;97005.25;6132738;23;20424;-78
2022/09/22 11:16:36;;;;;;;3.93;2.03;;;;;;;12.42;100.00;97002.53;6149299;23;20424;-78
2022/09/22 11:19:25;;;;;;;1.90;1.50;;;;;;;12.48;100.00;97005.75;6152683;23;20711;-77
2022/09/22 11:22:11;;;;;;;4.73;1.70;;;;;;;12.45;100.00;97001.09;6176597;23;20404;-78
2022/09/22 11:24:47;;;;;;;4.63;1.97;;;;;;;12.23;100.00;96994.97;6127801;23;20411;-77
2022/09/22 11:27:27;;;;;;;1.80;1.70;;;;;;;12.14;100.00;96984.38;6152848;23;20451;-76
2022/09/22 11:30:00;;;;;;;2.90;2.17;;;;;;;12.20;100.00;96992.97;6133453;23;20375;-78
2022/09/22 11:32:43;;;;;;;1.63;1.40;;;;;;;12.09;100.00;96973.19;6157318;23;20369;-78
2022/09/22 11:35:15;;;;;;;2.10;1.90;;;;;;;12.14;100.00;96988.91;6157487;23;20380;-78
2022/09/22 11:38:10;;;;;;;1.80;1.50;;;;;;;12.17;100.00;96988.28;6131151;23;20427;-81
2022/09/22 11:41:18;;;;;;;2.90;1.60;;;;;;;13.05;100.00;96994.56;6132656;23;20494;-79
2022/09/22 11:44:04;;;;;;;2.90;1.63;;;;;;;12.60;100.00;96988.03;6103937;23;20403;-79
2022/09/22 11:46:45;;;;;;;1.60;1.40;;;;;;;12.67;100.00;96976.91;6108459;23;20929;-79
2022/09/22 11:49:30;;;;;;;2.67;1.80;;;;;;;12.53;100.00;96981.69;6109819;23;20486;-79
2022/09/22 11:52:15;;;;;;;1.50;1.30;;;;;;;12.37;100.00;96968.97;6133054;23;20408;-79
2022/09/22 11:55:22;;;;;;;1.37;1.20;;;;;;;12.40;100.00;96970.22;6133637;23;20414;-79
2022/09/22 11:57:55;;;;;;;2.00;1.73;;;;;;;12.93;100.00;96964.22;6160204;23;20418;-78
2022/09/22 12:00:22;;;;;;;2.27;1.60;;;;;;;13.71;93.65;96965.34;6108544;23;20495;-79
2022/09/22 12:03:53;;;;;;;1.53;1.40;;;;;;;14.84;87.40;96972.63;6107620;23;20462;-79
2022/09/22 12:06:25;;;;;;;2.80;1.83;;;;;;;14.40;85.39;96945.84;6012250;23;20433;-77
2022/09/22 12:09:01;;;;;;;2.10;1.47;;;;;;;15.18;81.43;96934.00;6041094;23;20411;-77
2022/09/22 12:11:34;;;;;;;1.50;1.30;;;;;;;14.60;78.27;96933.53;6090280;23;20403;-78